createdAt,value
2022-11-20T00:00:18.218Z,100065.19
2022-11-20T00:02:44.757Z,100042.91
2022-11-20T00:05:11.304Z,100029.47
2022-11-20T00:07:37.891Z,100030.13
2022-11-20T00:10:04.838Z,100035.03
2022-11-20T00:12:31.424Z,100037.00
2022-11-20T00:14:58.027Z,100056.69
2022-11-20T00:17:24.627Z,100065.78
2022-11-20T00:19:51.166Z,100065.53
2022-11-20T00:22:17.746Z,100065.53
2022-11-20T00:24:44.380Z,100072.56
2022-11-20T00:27:10.913Z,100088.09
2022-11-20T00:29:40.404Z,100088.97
2022-11-20T00:32:06.991Z,100081.50
2022-11-20T00:34:33.562Z,100059.75
2022-11-20T00:37:00.136Z,100070.00
2022-11-20T00:39:26.694Z,100089.84
2022-11-20T00:41:53.321Z,100083.75
2022-11-20T00:44:19.833Z,100082.97
2022-11-20T00:46:46.403Z,100071.47
2022-11-20T00:49:12.983Z,100060.84
2022-11-20T00:51:39.630Z,100074.69
2022-11-20T00:54:06.212Z,100059.25
2022-11-20T00:56:32.826Z,100052.56
2022-11-20T00:59:02.078Z,100051.00
2022-11-20T01:01:30.386Z,100045.19
2022-11-20T01:03:59.400Z,100063.41
2022-11-20T01:06:38.009Z,100054.00
2022-11-20T01:09:08.410Z,100045.34
2022-11-20T01:11:37.850Z,100041.09
2022-11-20T01:14:08.601Z,100053.03
2022-11-20T01:16:38.307Z,100055.03
2022-11-20T01:19:07.933Z,100042.12
2022-11-20T01:21:37.539Z,100046.94
2022-11-20T01:24:06.542Z,100050.63
2022-11-20T01:26:35.793Z,100047.09
2022-11-20T01:29:04.451Z,100045.50
2022-11-20T01:31:38.285Z,100049.81
2022-11-20T01:34:10.856Z,100059.31
2022-11-20T01:36:38.448Z,100061.59
2022-11-20T01:39:08.075Z,100059.75
2022-11-20T01:41:53.681Z,100053.34
2022-11-20T01:44:23.290Z,100064.66
2022-11-20T01:47:08.037Z,100050.34
2022-11-20T01:49:34.518Z,100065.59
2022-11-20T01:52:06.429Z,100063.44
2022-11-20T01:54:40.069Z,100039.34
2022-11-20T01:57:09.887Z,100028.66
2022-11-20T01:59:42.075Z,100020.09
2022-11-20T02:02:08.899Z,100043.66
2022-11-20T02:04:35.524Z,100042.06
2022-11-20T02:07:04.436Z,100041.25
2022-11-20T02:09:31.047Z,100044.25
2022-11-20T02:11:58.828Z,100047.37
2022-11-20T02:14:26.233Z,100057.03
2022-11-20T02:16:53.392Z,100049.75
2022-11-20T02:19:29.687Z,100057.78
2022-11-20T02:22:05.485Z,100056.97
2022-11-20T02:24:32.464Z,100054.13
2022-11-20T02:27:14.014Z,100057.03
2022-11-20T02:29:43.116Z,100044.25
2022-11-20T02:32:26.203Z,100051.72
2022-11-20T02:34:52.966Z,100045.22
2022-11-20T02:37:21.234Z,100046.59
2022-11-20T02:39:51.432Z,100036.72
2022-11-20T02:42:18.355Z,100032.16
2022-11-20T02:44:44.921Z,100036.84
2022-11-20T02:47:13.887Z,100027.28
2022-11-20T02:49:40.487Z,100032.03
2022-11-20T02:52:07.047Z,100019.31
2022-11-20T02:54:33.589Z,100021.03
2022-11-20T02:57:00.216Z,100021.72
2022-11-20T02:59:26.775Z,100016.50
2022-11-20T03:01:53.333Z,100010.59
2022-11-20T03:04:19.950Z,100005.78
2022-11-20T03:06:46.550Z,99998.59
2022-11-20T03:09:13.574Z,99990.16
2022-11-20T03:11:40.234Z,99992.50
2022-11-20T03:14:06.818Z,99994.06
2022-11-20T03:16:35.616Z,99992.28
2022-11-20T03:19:02.199Z,100001.94
2022-11-20T03:21:28.790Z,99998.88
2022-11-20T03:23:55.641Z,100015.03
2022-11-20T03:26:24.764Z,100024.50
2022-11-20T03:28:57.164Z,100026.69
2022-11-20T03:31:29.285Z,100025.72
2022-11-20T03:33:59.805Z,100026.69
2022-11-20T03:36:27.850Z,100033.78
2022-11-20T03:38:55.799Z,100027.06
2022-11-20T03:41:27.965Z,100032.69
2022-11-20T03:43:56.889Z,100014.31
2022-11-20T03:46:23.522Z,100002.31
2022-11-20T03:48:52.122Z,99997.53
2022-11-20T03:51:27.290Z,99986.94
2022-11-20T03:53:55.931Z,99993.22
2022-11-20T03:56:34.676Z,99992.28
2022-11-20T03:59:01.263Z,99978.66
2022-11-20T04:01:31.136Z,99982.16
2022-11-20T04:03:58.026Z,99973.44
2022-11-20T04:06:30.087Z,99971.63
2022-11-20T04:08:58.137Z,99986.81
2022-11-20T04:11:28.642Z,99977.16
2022-11-20T04:14:00.104Z,99973.44
2022-11-20T04:16:27.690Z,99974.59
2022-11-20T04:18:57.955Z,99965.75
2022-11-20T04:21:24.979Z,99953.69
2022-11-20T04:23:53.778Z,99949.13
2022-11-20T04:26:21.580Z,99959.69
2022-11-20T04:28:48.209Z,99956.50
2022-11-20T04:31:18.814Z,99956.97
2022-11-20T04:33:45.710Z,99962.09
2022-11-20T04:36:21.307Z,99966.69
2022-11-20T04:38:56.503Z,99977.63
2022-11-20T04:41:28.814Z,99984.63
2022-11-20T04:44:00.791Z,99986.53
2022-11-20T04:46:28.438Z,99987.03
2022-11-20T04:48:55.489Z,99969.38
2022-11-20T04:51:22.163Z,99962.31
2022-11-20T04:53:48.752Z,99951.44
2022-11-20T04:56:15.635Z,99950.41
2022-11-20T04:58:42.548Z,99958.03
2022-11-20T05:01:15.265Z,99955.16
2022-11-20T05:03:43.391Z,99952.44
2022-11-20T05:06:12.194Z,99957.31
2022-11-20T05:08:39.275Z,99952.44
2022-11-20T05:11:10.237Z,99955.22
2022-11-20T05:13:37.220Z,99971.91
2022-11-20T05:16:18.535Z,99952.03
2022-11-20T05:18:46.077Z,99944.75
2022-11-20T05:21:13.355Z,99936.16
2022-11-20T05:23:40.073Z,99938.66
2022-11-20T05:26:08.715Z,99932.00
2022-11-20T05:28:35.848Z,99911.66
2022-11-20T05:31:10.476Z,99903.91
2022-11-20T05:33:37.543Z,99906.62
2022-11-20T05:36:05.272Z,99908.66
2022-11-20T05:38:31.934Z,99909.50
2022-11-20T05:41:27.594Z,99922.06
2022-11-20T05:43:54.157Z,99921.31
2022-11-20T05:46:28.669Z,99929.69
2022-11-20T05:48:57.428Z,99930.13
2022-11-20T05:51:24.956Z,99929.09
2022-11-20T05:53:51.470Z,99933.47
2022-11-20T05:56:20.296Z,99927.13
2022-11-20T05:58:48.022Z,99920.06
2022-11-20T06:01:17.850Z,99931.63
2022-11-20T06:03:48.297Z,99939.63
2022-11-20T06:06:15.775Z,99943.13
2022-11-20T06:08:42.649Z,99937.09
2022-11-20T06:11:13.616Z,99933.59
2022-11-20T06:13:42.505Z,99925.47
2022-11-20T06:16:10.241Z,99939.87
2022-11-20T06:18:37.288Z,99945.81
2022-11-20T06:21:06.785Z,99937.53
2022-11-20T06:23:35.121Z,99924.87
2022-11-20T06:26:07.444Z,99930.94
2022-11-20T06:28:34.383Z,99936.84
2022-11-20T06:31:00.977Z,99943.59
2022-11-20T06:33:27.754Z,99944.59
2022-11-20T06:36:00.422Z,99965.78
2022-11-20T06:38:29.891Z,99977.19
2022-11-20T06:40:56.747Z,99985.59
2022-11-20T06:43:24.361Z,99997.06
2022-11-20T06:45:55.078Z,99996.47
2022-11-20T06:48:22.707Z,99993.22
2022-11-20T06:50:49.300Z,100000.06
2022-11-20T06:53:15.851Z,100015.34
2022-11-20T06:55:49.237Z,99998.50
2022-11-20T06:58:17.210Z,99987.84
2022-11-20T07:00:44.371Z,99981.72
2022-11-20T07:03:12.734Z,99989.66
2022-11-20T07:05:39.871Z,99986.41
2022-11-20T07:08:06.769Z,99973.25
2022-11-20T07:10:34.020Z,99962.91
2022-11-20T07:13:00.744Z,99968.19
2022-11-20T07:15:28.067Z,99970.59
2022-11-20T07:17:54.630Z,99973.81
2022-11-20T07:20:21.224Z,99976.91
2022-11-20T07:22:47.802Z,99974.72
2022-11-20T07:25:14.351Z,99977.91
2022-11-20T07:27:41.004Z,99987.19
2022-11-20T07:30:07.923Z,99992.81
2022-11-20T07:32:34.538Z,99996.41
2022-11-20T07:35:01.077Z,100003.44
2022-11-20T07:37:27.675Z,100003.16
2022-11-20T07:39:54.191Z,99997.38
2022-11-20T07:42:20.725Z,100007.66
2022-11-20T07:44:49.802Z,100007.69
2022-11-20T07:47:16.367Z,100007.34
2022-11-20T07:49:42.943Z,100007.34
2022-11-20T07:52:09.514Z,100010.56
2022-11-20T07:54:36.306Z,100018.91
2022-11-20T07:57:03.011Z,100019.72
2022-11-20T07:59:29.562Z,100018.56
2022-11-20T08:01:56.514Z,99999.50
2022-11-20T08:04:24.396Z,99987.94
2022-11-20T08:06:53.028Z,99989.38
2022-11-20T08:09:19.980Z,99989.38
2022-11-20T08:12:05.174Z,99995.31
2022-11-20T08:14:31.851Z,100005.88
2022-11-20T08:16:58.625Z,100001.72
2022-11-20T08:19:25.311Z,100005.88
2022-11-20T08:21:51.946Z,99999.94
2022-11-20T08:24:18.548Z,100005.06
2022-11-20T08:26:45.086Z,100002.53
2022-11-20T08:29:11.662Z,100002.97
2022-11-20T08:31:38.591Z,99984.25
2022-11-20T08:34:09.154Z,99980.31
2022-11-20T08:36:36.444Z,99997.78
2022-11-20T08:39:04.061Z,99998.91
2022-11-20T08:41:34.008Z,100004.09
2022-11-20T08:44:03.013Z,100004.88
2022-11-20T08:46:34.941Z,100011.81
2022-11-20T08:49:01.630Z,100018.16
2022-11-20T08:51:28.308Z,100009.09
2022-11-20T08:53:54.873Z,100008.97
2022-11-20T08:56:21.455Z,100005.47
2022-11-20T09:01:34.679Z,100008.84
2022-11-20T09:04:01.361Z,100009.25
2022-11-20T09:06:28.082Z,100011.22
2022-11-20T09:08:55.069Z,100018.31
2022-11-20T09:11:22.622Z,100013.91
2022-11-20T09:13:49.526Z,100011.81
2022-11-20T09:16:16.103Z,100011.47
2022-11-20T09:18:42.709Z,100025.56
2022-11-20T09:21:12.415Z,100031.88
2022-11-20T09:23:39.842Z,100038.09
2022-11-20T09:26:11.935Z,100037.37
2022-11-20T09:28:38.605Z,100028.91
2022-11-20T09:31:09.887Z,100015.38
2022-11-20T09:33:36.953Z,100015.56
2022-11-20T09:36:03.803Z,100019.72
2022-11-20T09:38:30.440Z,100014.22
2022-11-20T09:41:05.470Z,100022.19
2022-11-20T09:43:46.905Z,100024.34
2022-11-20T09:46:32.483Z,100018.94
2022-11-20T09:49:08.262Z,100003.88
2022-11-20T09:52:15.252Z,99996.25
2022-11-20T09:54:42.033Z,99992.78
2022-11-20T09:57:39.068Z,99986.97
2022-11-20T10:00:12.057Z,99989.50
2022-11-20T10:03:00.611Z,99993.87
2022-11-20T10:05:32.429Z,99993.94
2022-11-20T10:08:09.991Z,99994.69
2022-11-20T10:11:03.173Z,99988.88
2022-11-20T10:13:35.522Z,99980.69
2022-11-20T10:16:18.242Z,99968.22
2022-11-20T10:19:09.294Z,99956.47
2022-11-20T10:21:41.896Z,99954.13
2022-11-20T10:24:28.356Z,99947.31
2022-11-20T10:27:07.757Z,99959.44
2022-11-20T10:29:36.318Z,99954.25
2022-11-20T10:32:08.766Z,99950.66
2022-11-20T10:34:42.970Z,99950.97
2022-11-20T10:37:15.750Z,99942.53
2022-11-20T10:39:51.337Z,99950.94
2022-11-20T10:42:36.401Z,99956.00
2022-11-20T10:45:21.671Z,99968.31
2022-11-20T10:47:48.905Z,99959.00
2022-11-20T10:50:22.497Z,99963.13
2022-11-20T10:53:17.317Z,99958.62
2022-11-20T10:55:59.496Z,99961.34
2022-11-20T10:58:49.874Z,99965.06
2022-11-20T11:01:24.833Z,99976.44
2022-11-20T11:03:56.685Z,99978.37
2022-11-20T11:06:33.805Z,99974.56
2022-11-20T11:09:17.265Z,99977.13
2022-11-20T11:11:44.117Z,99976.78
2022-11-20T11:14:13.872Z,99986.25
2022-11-20T11:16:55.295Z,99986.59
2022-11-20T11:19:22.380Z,99982.12
2022-11-20T11:21:55.377Z,99982.28
2022-11-20T11:24:42.647Z,99979.41
2022-11-20T11:27:18.035Z,99970.87
2022-11-20T11:29:45.978Z,99961.59
2022-11-20T11:32:15.354Z,99971.69
2022-11-20T11:34:42.338Z,99972.75
2022-11-20T11:37:18.544Z,99972.13
2022-11-20T11:39:49.369Z,99971.59
2022-11-20T11:42:21.971Z,99973.06
2022-11-20T11:45:07.447Z,99961.03
2022-11-20T11:47:38.362Z,99957.56
2022-11-20T11:50:11.024Z,99937.91
2022-11-20T11:52:42.653Z,99933.31
2022-11-20T11:55:16.028Z,99929.22
2022-11-20T11:57:45.524Z,99939.91
2022-11-20T12:00:21.470Z,99948.06
2022-11-20T12:02:50.805Z,99956.59
2022-11-20T12:05:44.908Z,99959.78
2022-11-20T12:08:20.224Z,99946.25
2022-11-20T12:11:01.085Z,99932.22
2022-11-20T12:13:46.335Z,99921.06
2022-11-20T12:16:15.937Z,99924.00
2022-11-20T12:18:43.459Z,99919.31
2022-11-20T12:21:25.455Z,99934.78
2022-11-20T12:24:06.875Z,99920.88
2022-11-20T12:26:57.165Z,99920.62
2022-11-20T12:29:36.002Z,99921.06
2022-11-20T12:32:08.156Z,99928.44
2022-11-20T12:34:37.666Z,99924.59
2022-11-20T12:37:10.075Z,99940.87
2022-11-20T12:39:42.574Z,99945.84
2022-11-20T12:42:33.778Z,99934.00
2022-11-20T12:45:19.369Z,99943.19
2022-11-20T12:48:00.867Z,99946.97
2022-11-20T12:50:42.906Z,99953.81
2022-11-20T12:53:40.078Z,99953.44
2022-11-20T12:56:24.933Z,99945.94
2022-11-20T12:59:10.119Z,99952.28
2022-11-20T13:01:41.846Z,99949.88
2022-11-20T13:04:19.670Z,99945.69
2022-11-20T13:06:46.420Z,99946.94
2022-11-20T13:09:17.646Z,99953.31
2022-11-20T13:12:08.918Z,99946.56
2022-11-20T13:14:56.388Z,99952.94
2022-11-20T13:17:31.685Z,99944.41
2022-11-20T13:20:02.210Z,99936.94
2022-11-20T13:22:46.641Z,99945.09
2022-11-20T13:25:31.599Z,99942.47
2022-11-20T13:28:22.554Z,99940.31
2022-11-20T13:30:53.831Z,99936.91
2022-11-20T13:33:25.179Z,99928.16
2022-11-20T13:36:08.687Z,99923.31
2022-11-20T13:38:49.722Z,99919.31
2022-11-20T13:41:38.683Z,99912.56
2022-11-20T13:44:16.092Z,99905.22
2022-11-20T13:46:45.698Z,99907.38
2022-11-20T13:49:22.623Z,99893.16
2022-11-20T13:51:52.707Z,99900.53
2022-11-20T13:54:58.995Z,99901.50
2022-11-20T13:57:40.778Z,99890.84
2022-11-20T14:00:19.686Z,99888.34
2022-11-20T14:03:28.409Z,99904.34
2022-11-20T14:06:15.581Z,99900.91
2022-11-20T14:08:51.818Z,99899.66
2022-11-20T14:11:22.912Z,99900.22
2022-11-20T14:14:20.155Z,99893.03
2022-11-20T14:16:48.174Z,99904.97
2022-11-20T14:19:20.728Z,99912.25
2022-11-20T14:22:07.916Z,99913.19
2022-11-20T14:24:34.744Z,99906.78
2022-11-20T14:27:01.726Z,99906.53
2022-11-20T14:29:30.868Z,99905.19
2022-11-20T14:31:58.063Z,99910.44
2022-11-20T14:34:27.764Z,99904.91
2022-11-20T14:36:59.397Z,99915.59
2022-11-20T14:39:51.747Z,99912.47
2022-11-20T14:42:22.231Z,99917.91
2022-11-20T14:44:50.699Z,99917.97
2022-11-20T14:47:23.395Z,99917.47
2022-11-20T14:49:52.605Z,99928.66
2022-11-20T14:52:27.606Z,99926.34
2022-11-20T14:54:57.822Z,99932.91
2022-11-20T14:57:39.111Z,99941.16
2022-11-20T15:00:11.498Z,99945.66
2022-11-20T15:02:46.788Z,99952.19
2022-11-20T15:05:14.909Z,99952.78
2022-11-20T15:07:46.800Z,99948.66
2022-11-20T15:10:27.508Z,99943.88
2022-11-20T15:12:55.141Z,99951.16
2022-11-20T15:15:26.664Z,99956.50
2022-11-20T15:17:53.318Z,99951.75
2022-11-20T15:20:20.127Z,99956.78
2022-11-20T15:22:46.695Z,99957.50
2022-11-20T15:25:18.022Z,99957.41
2022-11-20T15:27:45.823Z,99954.25
2022-11-20T15:30:18.004Z,99954.63
2022-11-20T15:32:45.362Z,99956.44
2022-11-20T15:35:12.514Z,99958.22
2022-11-20T15:37:39.903Z,99956.59
2022-11-20T15:40:07.920Z,99961.88
2022-11-20T15:42:35.082Z,99958.31
2022-11-20T15:45:01.776Z,99959.56
2022-11-20T15:47:32.337Z,99954.84
2022-11-20T15:49:58.835Z,99958.38
2022-11-20T15:52:26.151Z,99961.81
2022-11-20T15:54:55.884Z,99965.59
2022-11-20T15:57:22.462Z,99970.22
2022-11-20T15:59:49.087Z,99966.00
2022-11-20T16:02:19.395Z,99966.53
2022-11-20T16:04:46.148Z,99964.34
2022-11-20T16:07:12.821Z,99961.84
2022-11-20T16:09:39.443Z,99958.50
2022-11-20T16:12:06.443Z,99967.81
2022-11-20T16:14:51.599Z,99954.84
2022-11-20T16:17:38.158Z,99954.28
2022-11-20T16:20:05.024Z,99954.84
2022-11-20T16:22:31.584Z,99950.25
2022-11-20T16:24:58.159Z,99952.44
2022-11-20T16:27:24.765Z,99948.00
2022-11-20T16:29:51.309Z,99950.13
2022-11-20T16:32:17.869Z,99952.06
2022-11-20T16:34:44.450Z,99946.88
2022-11-20T16:37:10.997Z,99942.47
2022-11-20T16:39:37.585Z,99948.47
2022-11-20T16:42:04.932Z,99947.31
2022-11-20T16:44:31.506Z,99940.37
2022-11-20T16:46:58.100Z,99934.81
2022-11-20T16:49:24.915Z,99940.03
2022-11-20T16:51:52.045Z,99939.28
2022-11-20T16:54:21.361Z,99948.13
2022-11-20T16:56:48.360Z,99949.06
2022-11-20T16:59:15.049Z,99939.25
2022-11-20T17:01:43.177Z,99941.09
2022-11-20T17:04:10.205Z,99943.13
2022-11-20T17:06:40.440Z,99944.59
2022-11-20T17:09:09.674Z,99940.31
2022-11-20T17:11:37.375Z,99933.75
2022-11-20T17:14:04.584Z,99930.66
2022-11-20T17:16:31.271Z,99921.31
2022-11-20T17:19:02.896Z,99923.34
2022-11-20T17:21:30.996Z,99918.25
2022-11-20T17:24:01.049Z,99916.09
2022-11-20T17:26:28.776Z,99911.81
2022-11-20T17:29:01.247Z,99910.56
2022-11-20T17:31:29.640Z,99903.47
2022-11-20T17:33:56.442Z,99899.47
2022-11-20T17:36:23.007Z,99891.31
2022-11-20T17:38:49.671Z,99881.03
2022-11-20T17:41:20.453Z,99878.56
2022-11-20T17:43:47.030Z,99879.59
2022-11-20T17:46:14.823Z,99875.69
2022-11-20T17:48:43.273Z,99877.88
2022-11-20T17:51:18.020Z,99882.72
2022-11-20T17:53:47.174Z,99895.34
2022-11-20T17:56:32.675Z,99895.13
2022-11-20T17:59:00.138Z,99896.59
2022-11-20T18:01:26.786Z,99896.72
2022-11-20T18:03:53.417Z,99913.28
2022-11-20T18:06:22.403Z,99902.03
2022-11-20T18:08:50.410Z,99911.22
2022-11-20T18:11:28.912Z,99922.03
2022-11-20T18:14:16.277Z,99927.88
2022-11-20T18:16:49.130Z,99927.75
2022-11-20T18:19:19.440Z,99936.56
2022-11-20T18:21:46.155Z,99944.44
2022-11-20T18:24:14.782Z,99944.62
2022-11-20T18:26:44.279Z,99951.84
2022-11-20T18:29:12.156Z,99955.53
2022-11-20T18:31:38.760Z,99956.41
2022-11-20T18:34:06.795Z,99961.66
2022-11-20T18:36:33.502Z,99956.47
2022-11-20T18:39:01.776Z,99959.47
2022-11-20T18:41:49.058Z,99969.16
2022-11-20T18:44:35.639Z,99965.66
2022-11-20T18:47:04.843Z,99962.97
2022-11-20T18:49:34.558Z,99970.13
2022-11-20T18:52:01.185Z,99967.41
2022-11-20T18:54:30.156Z,99971.84
2022-11-20T18:56:56.813Z,99967.69
2022-11-20T18:59:23.391Z,99972.25
2022-11-20T19:01:52.545Z,99969.69
2022-11-20T19:04:19.125Z,99970.09
2022-11-20T19:06:49.801Z,99966.34
2022-11-20T19:09:17.044Z,99963.25
2022-11-20T19:11:43.894Z,99958.81
2022-11-20T19:14:10.514Z,99958.28
2022-11-20T19:16:37.607Z,99952.63
2022-11-20T19:19:05.602Z,99950.78
2022-11-20T19:21:32.677Z,99952.09
2022-11-20T19:24:01.437Z,99947.03
2022-11-20T19:26:28.522Z,99947.94
2022-11-20T19:28:58.739Z,99935.44
2022-11-20T19:31:29.086Z,99922.72
2022-11-20T19:34:01.275Z,99922.56
2022-11-20T19:36:41.682Z,99946.59
2022-11-20T19:39:11.328Z,99940.41
2022-11-20T19:41:39.736Z,99925.50
2022-11-20T19:44:08.843Z,99921.06
2022-11-20T19:46:37.092Z,99929.50
2022-11-20T19:49:05.286Z,99913.81
2022-11-20T19:51:34.812Z,99915.78
2022-11-20T19:54:02.698Z,99931.53
2022-11-20T19:56:31.223Z,99921.75
2022-11-20T19:58:58.030Z,99921.47
2022-11-20T20:01:27.573Z,99927.59
2022-11-20T20:03:55.399Z,99923.75
2022-11-20T20:06:26.402Z,99932.37
2022-11-20T20:08:57.667Z,99928.66
2022-11-20T20:11:26.711Z,99923.09
2022-11-20T20:13:55.967Z,99912.59
2022-11-20T20:16:25.010Z,99908.00
2022-11-20T20:18:55.457Z,99911.09
2022-11-20T20:21:22.098Z,99900.31
2022-11-20T20:23:53.844Z,99904.59
2022-11-20T20:26:22.407Z,99899.91
2022-11-20T20:28:49.293Z,99903.81
2022-11-20T20:31:18.923Z,99895.91
2022-11-20T20:33:45.870Z,99890.81
2022-11-20T20:36:14.358Z,99883.97
2022-11-20T20:38:42.366Z,99893.06
2022-11-20T20:41:08.950Z,99900.06
2022-11-20T20:43:56.487Z,99893.38
2022-11-20T20:46:24.176Z,99884.88
2022-11-20T20:48:54.327Z,99888.53
2022-11-20T20:51:22.332Z,99892.66
2022-11-20T20:53:49.597Z,99893.91
2022-11-20T20:56:17.243Z,99890.56
2022-11-20T20:58:43.822Z,99897.31
2022-11-20T21:01:13.424Z,99904.47
2022-11-20T21:03:40.535Z,99895.69
2022-11-20T21:06:09.832Z,99888.44
2022-11-20T21:08:40.095Z,99907.22
2022-11-20T21:11:14.784Z,99905.25
2022-11-20T21:13:43.073Z,99892.34
2022-11-20T21:16:14.059Z,99904.16
2022-11-20T21:18:40.723Z,99894.91
2022-11-20T21:21:29.245Z,99892.22
2022-11-20T21:23:55.874Z,99891.03
2022-11-20T21:26:22.480Z,99897.44
2022-11-20T21:28:50.004Z,99894.37
2022-11-20T21:31:21.942Z,99899.72
2022-11-20T21:33:50.661Z,99907.59
2022-11-20T21:36:20.276Z,99898.22
2022-11-20T21:38:47.645Z,99900.09
2022-11-20T21:41:20.752Z,99903.22
2022-11-20T21:44:09.129Z,99909.44
2022-11-20T21:46:40.571Z,99908.66
2022-11-20T21:49:09.290Z,99912.22
2022-11-20T21:51:36.219Z,99906.28
2022-11-20T21:54:02.830Z,99896.25
2022-11-20T21:56:29.445Z,99891.97
2022-11-20T21:58:56.092Z,99891.25
2022-11-20T22:01:25.364Z,99891.41
2022-11-20T22:04:01.559Z,99890.75
2022-11-20T22:06:33.796Z,99897.72
2022-11-20T22:09:01.825Z,99890.47
2022-11-20T22:11:28.460Z,99880.44
2022-11-20T22:14:15.797Z,99876.50
2022-11-20T22:16:42.375Z,99868.69
2022-11-20T22:19:09.200Z,99865.94
2022-11-20T22:21:38.608Z,99867.44
2022-11-20T22:24:05.322Z,99870.63
2022-11-20T22:26:40.031Z,99865.38
2022-11-20T22:29:07.935Z,99864.44
2022-11-20T22:31:34.544Z,99856.25
2022-11-20T22:34:02.264Z,99861.22
2022-11-20T22:36:30.731Z,99856.50
2022-11-20T22:39:00.023Z,99863.00
2022-11-20T22:41:28.558Z,99858.69
2022-11-20T22:43:57.269Z,99848.94
2022-11-20T22:46:26.087Z,99851.44
2022-11-20T22:49:01.389Z,99841.47
2022-11-20T22:51:30.172Z,99833.56
2022-11-20T22:53:56.887Z,99838.00
2022-11-20T22:56:24.003Z,99839.34
2022-11-20T22:58:52.590Z,99832.09
2022-11-20T23:01:25.157Z,99842.03
2022-11-20T23:03:54.698Z,99837.19
2022-11-20T23:06:22.205Z,99835.72
2022-11-20T23:08:50.194Z,99831.03
2022-11-20T23:11:21.551Z,99846.28
2022-11-20T23:13:52.949Z,99844.19
2022-11-20T23:16:20.025Z,99840.28
2022-11-20T23:18:47.040Z,99856.66
2022-11-20T23:21:16.086Z,99856.53
2022-11-20T23:23:43.713Z,99848.19
2022-11-20T23:26:12.340Z,99838.97
2022-11-20T23:28:40.577Z,99831.84
2022-11-20T23:31:08.407Z,99829.94
2022-11-20T23:33:42.747Z,99826.72
2022-11-20T23:36:10.139Z,99827.00
2022-11-20T23:38:36.961Z,99822.28
2022-11-20T23:41:04.008Z,99819.06
2022-11-20T23:43:30.835Z,99812.50
2022-11-20T23:45:59.632Z,99804.44
2022-11-20T23:48:28.728Z,99803.50
2022-11-20T23:50:56.021Z,99807.09
2022-11-20T23:53:23.192Z,99803.87
2022-11-20T23:55:52.836Z,99806.56
2022-11-20T23:58:20.076Z,99799.75
